Hauptseite
METAR-TAF:

METAR-TAF

Flughäfen :

Verkehrslandeplatz Hof-Plauen

Hof, Deutschland

Breite: 50-19N, Länge: 011-53E, Höhe: 567 m

Beobachtung

Neuester Wetterbericht von vor 5 Stunden und 8 Minuten, um 15:50 UTC
Wind 5 kt aus West/Südwest
Temperatur 6°C
Luftfeuchtigkeit 75%
Luftdruck 1015 hPa
Sichtweite 10 km oder mehr
Leicht bewölkt in der Höhe von 2900 ft
Durchbrochene Bewölkung in der Höhe von 4800 ft
Sprühregen leicht

METAR: EDQM 031550Z 25005KT 9999 -DZ FEW029 BKN048 06/02 Q1015

Zeit: 22:58 (20:58 UTC)

Prognose

Neuester Wetterbericht von vor 6 Stunden und 58 Minuten, um 14:00 UTC
Gültige Prognose vom 03 um 15 UTC bis 03 um 24 UTC
Wind 8 kt aus West/Südwest
Sichtweite 10 km oder mehr
Durchbrochene Bewölkung in der Höhe von 4000 ft
Übergehend zu
vom 03 um 16 UTC bis 03 um 18 UTC
Wind 3 kt aus West/Südwest

TAF: EDQM 031400Z 0315/0324 24008KT 9999 BKN040 BECMG 0316/0318 24003KT

Wetterbeobachtungen und Prognosen von mehr als 4000 Flughäfen (METAR und TAF Bericht).

Die verfügbaren Stationen werden durch gelbe und rote Markierungen auf der Karte dargestellt.

Führen Sie die Maus auf sie, um den Namen der Station zu sehen.

Darauf klicken, um die Beobachtung von Wetterbeobachtungen und Prognosen zu sehen.

Um die Karte zu ändern : klicken Sie auf den grünen Tasten mit einem schwarzen Kreuz Zum Vergrößern, auf den grünen Button mit einem Gedankenstrich zu verkleinern, oder auf die grünen Pfeile für benachbarte Karten.


METAR-TAF: